Time;durP1;ratioP1;P1;durP2;ratioP2;P2;SDS_P1;SDS_P2;PMS_P1;PMS_P2;Temp;Humidity;BMP_temperature;BMP_pressure;BME280_temperature;BME280_humidity;BME280_pressure;Samples;Min_cycle;Max_cycle;Signal;HPM_P1;HPM_P2
2023/01/05 00:00:54;;;;;;;27.03;24.73;;;;;;;;;;5078829;28;20540;-80
2023/01/05 00:03:21;;;;;;;25.40;22.70;;;;;;;;;;5077472;28;20453;-80
2023/01/05 00:05:48;;;;;;;23.27;21.93;;;;;;;;;;5078695;28;20428;-80
2023/01/05 00:08:16;;;;;;;26.00;23.50;;;;;;;;;;5078553;28;20409;-80
2023/01/05 00:24:30;;;;;;;22.77;20.67;;;;;;;;;;5078186;28;20379;-80
2023/01/05 00:26:58;;;;;;;23.33;21.03;;;;;;;;;;5077702;28;20560;-79
2023/01/05 00:29:24;;;;;;;21.13;19.93;;;;;;;;;;5078718;28;20431;-80
2023/01/05 00:31:51;;;;;;;22.87;21.27;;;;;;;;;;5078202;28;20408;-80
2023/01/05 00:34:18;;;;;;;24.40;22.10;;;;;;;;;;5077995;28;20441;-79
2023/01/05 00:36:45;;;;;;;22.93;21.00;;;;;;;;;;5077646;28;20471;-80
2023/01/05 00:39:12;;;;;;;25.63;23.33;;;;;;;;;;5077747;28;20469;-82
2023/01/05 00:41:41;;;;;;;25.07;22.60;;;;;;;;;;5077429;28;20944;-80
2023/01/05 00:44:08;;;;;;;26.40;24.70;;;;;;;;;;5077427;28;20464;-80
2023/01/05 00:46:35;;;;;;;51.87;48.37;;;;;;;;;;5077884;28;20444;-80
2023/01/05 00:49:02;;;;;;;55.30;52.40;;;;;;;;;;5078136;28;20454;-81
2023/01/05 00:51:29;;;;;;;57.93;53.33;;;;;;;;;;5078207;28;20454;-81
2023/01/05 00:53:56;;;;;;;55.63;51.93;;;;;;;;;;5076742;28;20469;-81
2023/01/05 00:56:23;;;;;;;53.40;50.00;;;;;;;;;;5078087;28;20907;-80
2023/01/05 00:58:54;;;;;;;52.67;49.57;;;;;;;;;;5078073;28;20424;-80
2023/01/05 01:01:21;;;;;;;53.83;50.63;;;;;;;;;;5078027;28;20433;-80
2023/01/05 01:03:48;;;;;;;60.70;55.70;;;;;;;;;;5077284;28;20941;-80
2023/01/05 01:06:15;;;;;;;61.37;57.93;;;;;;;;;;5077572;28;20463;-81
2023/01/05 01:08:42;;;;;;;59.97;56.53;;;;;;;;;;5078267;28;20463;-80
2023/01/05 01:11:10;;;;;;;59.87;55.87;;;;;;;;;;5077996;28;20872;-80
2023/01/05 01:13:38;;;;;;;58.20;54.50;;;;;;;;;;5077008;28;20895;-79
2023/01/05 01:16:10;;;;;;;57.67;53.80;;;;;;;;;;5077604;28;20804;-80
2023/01/05 01:18:37;;;;;;;56.60;53.37;;;;;;;;;;5078057;28;20575;-80
2023/01/05 01:21:04;;;;;;;56.00;52.57;;;;;;;;;;5077585;28;20597;-80
2023/01/05 01:23:32;;;;;;;55.97;51.40;;;;;;;;;;5077541;28;20420;-80
2023/01/05 01:26:00;;;;;;;58.07;53.47;;;;;;;;;;5077967;28;20535;-81
2023/01/05 01:28:27;;;;;;;51.90;48.90;;;;;;;;;;5077938;28;20506;-80
2023/01/05 01:30:53;;;;;;;53.87;50.27;;;;;;;;;;5076747;28;20428;-81
2023/01/05 01:33:22;;;;;;;50.80;47.57;;;;;;;;;;5076242;28;20466;-82
2023/01/05 01:35:49;;;;;;;46.00;43.60;;;;;;;;;;5077428;28;20483;-81
2023/01/05 01:38:16;;;;;;;44.43;41.67;;;;;;;;;;5077476;28;20460;-80
2023/01/05 01:40:44;;;;;;;44.20;41.50;;;;;;;;;;5077590;28;20442;-80
2023/01/05 01:43:13;;;;;;;40.20;38.07;;;;;;;;;;5076464;28;20879;-80
2023/01/05 01:45:40;;;;;;;41.13;37.93;;;;;;;;;;5078291;28;20449;-80
2023/01/05 01:48:08;;;;;;;35.97;33.00;;;;;;;;;;5078775;28;20467;-81
2023/01/05 01:50:37;;;;;;;30.20;27.90;;;;;;;;;;5079076;28;20774;-80
2023/01/05 01:53:06;;;;;;;31.97;29.63;;;;;;;;;;5076538;28;20474;-80
2023/01/05 01:55:33;;;;;;;30.40;28.00;;;;;;;;;;5077123;28;20480;-81
2023/01/05 01:58:01;;;;;;;30.00;27.50;;;;;;;;;;5076308;28;20509;-81
2023/01/05 02:00:28;;;;;;;26.47;24.50;;;;;;;;;;5077281;28;20454;-80
2023/01/05 02:02:56;;;;;;;28.47;26.27;;;;;;;;;;5077087;28;20522;-81
2023/01/05 02:05:25;;;;;;;30.23;27.73;;;;;;;;;;5076194;28;20431;-80
2023/01/05 02:07:53;;;;;;;29.83;27.70;;;;;;;;;;5076740;28;20482;-80
2023/01/05 02:10:34;;;;;;;31.37;28.57;;;;;;;;;;5076936;28;20443;-80
2023/01/05 02:13:05;;;;;;;29.87;27.67;;;;;;;;;;5076611;28;20430;-81
2023/01/05 02:15:38;;;;;;;27.90;25.70;;;;;;;;;;5076634;28;20412;-79
2023/01/05 02:18:12;;;;;;;29.53;27.03;;;;;;;;;;5077065;28;20495;-79
2023/01/05 02:20:53;;;;;;;353.92;128.02;;;;;;;;;;5076195;28;20755;-80
2023/01/05 02:23:43;;;;;;;28.80;26.63;;;;;;;;;;5076023;28;20237;-82
2023/01/05 02:26:28;;;;;;;25.50;23.07;;;;;;;;;;5076701;28;20448;-80
2023/01/05 02:29:05;;;;;;;26.77;23.97;;;;;;;;;;5076569;28;20430;-80
2023/01/05 02:31:36;;;;;;;23.97;22.63;;;;;;;;;;5075606;28;20510;-80
2023/01/05 02:34:08;;;;;;;25.47;23.10;;;;;;;;;;5075765;28;20417;-79
2023/01/05 02:36:37;;;;;;;25.53;23.60;;;;;;;;;;5075914;28;20444;-80
2023/01/05 02:39:07;;;;;;;25.83;23.10;;;;;;;;;;5076514;28;20440;-79
2023/01/05 02:41:36;;;;;;;24.07;22.60;;;;;;;;;;5075133;28;20495;-80
2023/01/05 02:44:03;;;;;;;24.37;22.97;;;;;;;;;;5075383;28;20471;-81
2023/01/05 02:46:31;;;;;;;25.47;23.27;;;;;;;;;;5076108;28;20469;-80
2023/01/05 02:49:00;;;;;;;27.70;25.30;;;;;;;;;;5076540;28;20510;-80
2023/01/05 02:51:31;;;;;;;27.53;25.63;;;;;;;;;;5075515;28;20432;-80
2023/01/05 02:54:00;;;;;;;32.30;28.23;;;;;;;;;;5074904;28;20818;-79
2023/01/05 02:56:30;;;;;;;34.67;28.00;;;;;;;;;;5074727;28;21041;-79
2023/01/05 02:58:58;;;;;;;30.50;27.73;;;;;;;;;;5076307;28;20428;-80
2023/01/05 03:01:27;;;;;;;31.90;29.07;;;;;;;;;;5076330;28;20480;-80
2023/01/05 03:03:56;;;;;;;34.03;31.10;;;;;;;;;;5075596;28;20419;-80
2023/01/05 03:06:26;;;;;;;31.77;28.23;;;;;;;;;;5075926;28;20435;-80
2023/01/05 03:08:56;;;;;;;32.00;29.33;;;;;;;;;;5075617;28;20897;-80
2023/01/05 03:14:13;;;;;;;31.13;28.13;;;;;;;;;;5074919;28;20484;-79
2023/01/05 03:16:40;;;;;;;29.17;27.07;;;;;;;;;;5074886;28;20966;-80
2023/01/05 03:35:44;;;;;;;27.60;25.20;;;;;;;;;;5075495;28;20376;-81
2023/01/05 03:38:16;;;;;;;23.80;22.07;;;;;;;;;;5075535;28;20473;-80
2023/01/05 03:40:44;;;;;;;27.50;25.07;;;;;;;;;;5075860;28;20446;-81
2023/01/05 03:43:11;;;;;;;23.50;21.80;;;;;;;;;;5075139;28;20449;-80
2023/01/05 03:45:40;;;;;;;24.07;22.73;;;;;;;;;;5075649;28;20461;-80
2023/01/05 03:48:07;;;;;;;26.27;23.93;;;;;;;;;;5075657;28;20438;-79
2023/01/05 03:50:35;;;;;;;26.53;24.20;;;;;;;;;;5075164;28;20428;-80
2023/01/05 03:53:02;;;;;;;25.83;24.10;;;;;;;;;;5075176;28;20405;-80
2023/01/05 03:55:30;;;;;;;25.67;23.37;;;;;;;;;;5079075;28;20477;-79
2023/01/05 03:57:57;;;;;;;25.23;23.13;;;;;;;;;;5078874;28;20902;-79
2023/01/05 04:00:24;;;;;;;27.13;24.80;;;;;;;;;;5079174;28;20481;-79
2023/01/05 04:02:51;;;;;;;25.13;23.33;;;;;;;;;;5078257;28;20792;-82
2023/01/05 04:05:18;;;;;;;23.47;21.77;;;;;;;;;;5078208;28;20420;-79
2023/01/05 04:07:45;;;;;;;23.90;22.13;;;;;;;;;;5078280;28;20498;-79
2023/01/05 04:10:12;;;;;;;24.13;21.43;;;;;;;;;;5079023;28;20428;-80
2023/01/05 04:12:41;;;;;;;23.70;22.30;;;;;;;;;;5077857;28;20468;-80
2023/01/05 04:15:08;;;;;;;29.40;23.37;;;;;;;;;;5077973;28;20445;-80
2023/01/05 04:17:35;;;;;;;24.03;22.30;;;;;;;;;;5078412;28;20507;-80
2023/01/05 04:20:04;;;;;;;25.00;22.70;;;;;;;;;;5078702;28;20432;-80
2023/01/05 04:22:31;;;;;;;30.50;24.57;;;;;;;;;;5077368;28;20481;-80
2023/01/05 04:24:59;;;;;;;25.07;23.13;;;;;;;;;;5077746;28;20424;-80
2023/01/05 04:27:26;;;;;;;23.53;21.40;;;;;;;;;;5077933;28;20832;-79
2023/01/05 04:29:54;;;;;;;27.30;24.60;;;;;;;;;;5078256;28;20478;-80
2023/01/05 04:32:21;;;;;;;27.20;24.50;;;;;;;;;;5077895;28;20420;-80
2023/01/05 04:34:48;;;;;;;25.10;23.10;;;;;;;;;;5077718;28;20424;-79
2023/01/05 04:37:15;;;;;;;22.87;21.33;;;;;;;;;;5076743;28;20482;-79
2023/01/05 04:39:42;;;;;;;25.23;22.20;;;;;;;;;;5078224;28;20786;-79
2023/01/05 04:42:09;;;;;;;24.00;21.90;;;;;;;;;;5077835;28;20424;-80
2023/01/05 04:44:36;;;;;;;23.40;21.40;;;;;;;;;;5077320;28;20450;-80
2023/01/05 04:47:04;;;;;;;25.60;23.03;;;;;;;;;;5077875;28;20444;-79
2023/01/05 04:49:31;;;;;;;25.23;22.93;;;;;;;;;;5077404;28;20911;-79
2023/01/05 04:51:58;;;;;;;24.33;22.03;;;;;;;;;;5076672;28;20462;-79
2023/01/05 04:54:25;;;;;;;22.23;20.77;;;;;;;;;;5076868;28;20482;-79
2023/01/05 04:56:52;;;;;;;24.47;22.27;;;;;;;;;;5077118;28;20452;-78
2023/01/05 04:59:19;;;;;;;22.87;20.97;;;;;;;;;;5077201;28;20456;-79
2023/01/05 05:01:46;;;;;;;23.43;21.23;;;;;;;;;;5077090;28;20900;-80
2023/01/05 05:04:15;;;;;;;25.20;22.77;;;;;;;;;;5076355;28;20971;-80
2023/01/05 05:06:42;;;;;;;23.63;21.33;;;;;;;;;;5076729;28;20525;-80
2023/01/05 05:09:09;;;;;;;22.00;20.40;;;;;;;;;;5076848;28;20449;-80
2023/01/05 05:11:36;;;;;;;25.60;23.00;;;;;;;;;;5077615;28;20504;-79
2023/01/05 05:14:02;;;;;;;24.87;22.27;;;;;;;;;;5076386;28;20424;-79
2023/01/05 05:16:29;;;;;;;21.93;20.20;;;;;;;;;;5077224;28;20478;-80
2023/01/05 05:18:57;;;;;;;23.37;21.03;;;;;;;;;;5076137;28;20560;-79
2023/01/05 05:21:25;;;;;;;23.70;21.90;;;;;;;;;;5076746;28;20438;-79
2023/01/05 05:23:52;;;;;;;25.70;23.20;;;;;;;;;;5075531;28;20428;-80
2023/01/05 05:26:19;;;;;;;23.93;22.00;;;;;;;;;;5076854;28;20474;-79
2023/01/05 05:28:46;;;;;;;22.77;20.77;;;;;;;;;;5076629;28;20444;-80
2023/01/05 05:31:13;;;;;;;24.77;22.13;;;;;;;;;;5075966;28;20942;-80
2023/01/05 05:33:41;;;;;;;24.60;21.80;;;;;;;;;;5075786;28;21042;-80
2023/01/05 05:36:08;;;;;;;24.53;18.73;;;;;;;;;;5076584;28;20456;-80
2023/01/05 05:38:36;;;;;;;21.57;19.47;;;;;;;;;;5076435;28;20554;-80
2023/01/05 05:41:03;;;;;;;22.70;20.87;;;;;;;;;;5076643;28;20423;-79
2023/01/05 05:43:30;;;;;;;21.60;19.70;;;;;;;;;;5075655;28;20428;-79
2023/01/05 05:45:57;;;;;;;22.87;20.60;;;;;;;;;;5075659;28;20543;-81
2023/01/05 05:48:25;;;;;;;21.40;19.70;;;;;;;;;;5076240;28;20420;-80
2023/01/05 05:50:52;;;;;;;22.87;20.60;;;;;;;;;;5075964;28;20437;-80
2023/01/05 05:53:19;;;;;;;28.03;22.60;;;;;;;;;;5075601;28;20930;-79
2023/01/05 05:55:49;;;;;;;26.80;24.10;;;;;;;;;;5075730;28;20522;-80
2023/01/05 05:58:16;;;;;;;97.60;55.97;;;;;;;;;;5076566;28;20495;-80
2023/01/05 06:00:43;;;;;;;28.67;24.63;;;;;;;;;;5076185;28;20482;-80
2023/01/05 06:03:10;;;;;;;25.43;22.83;;;;;;;;;;5075867;28;20473;-80
2023/01/05 06:05:37;;;;;;;20.47;19.17;;;;;;;;;;5075623;28;20432;-80
2023/01/05 06:08:05;;;;;;;33.17;27.70;;;;;;;;;;5075740;28;20412;-80
2023/01/05 06:10:31;;;;;;;31.17;27.97;;;;;;;;;;5076509;28;20496;-79
2023/01/05 06:13:00;;;;;;;31.33;28.57;;;;;;;;;;5074929;28;20806;-82
2023/01/05 06:15:27;;;;;;;22.37;20.30;;;;;;;;;;5076096;28;20777;-79
2023/01/05 06:17:54;;;;;;;21.83;20.33;;;;;;;;;;5075408;28;20489;-80
2023/01/05 06:20:21;;;;;;;22.03;20.53;;;;;;;;;;5075639;28;20416;-79
2023/01/05 06:22:48;;;;;;;22.03;20.67;;;;;;;;;;5074896;28;20481;-79
2023/01/05 06:25:15;;;;;;;26.97;24.00;;;;;;;;;;5075078;28;20427;-79
2023/01/05 06:27:43;;;;;;;25.23;22.73;;;;;;;;;;5075283;28;21027;-79
2023/01/05 06:30:12;;;;;;;25.67;23.00;;;;;;;;;;5075630;28;20877;-80
2023/01/05 06:32:39;;;;;;;21.83;20.73;;;;;;;;;;5079561;28;20486;-80
2023/01/05 06:35:06;;;;;;;23.37;21.07;;;;;;;;;;5080860;28;20423;-80
2023/01/05 06:37:33;;;;;;;23.40;21.50;;;;;;;;;;5083135;28;20476;-80
2023/01/05 06:40:00;;;;;;;26.97;23.10;;;;;;;;;;5076049;28;20224;-79
2023/01/05 06:42:27;;;;;;;24.17;22.37;;;;;;;;;;5075794;28;20448;-79
2023/01/05 06:44:54;;;;;;;23.20;21.50;;;;;;;;;;5074874;28;20421;-78
2023/01/05 06:47:22;;;;;;;22.43;21.03;;;;;;;;;;5074514;28;20481;-80
2023/01/05 06:49:49;;;;;;;23.50;21.50;;;;;;;;;;5075822;28;20418;-79
2023/01/05 06:52:16;;;;;;;24.00;22.20;;;;;;;;;;5075457;28;20449;-79
2023/01/05 06:54:43;;;;;;;23.03;21.23;;;;;;;;;;5074832;28;20424;-79
2023/01/05 06:57:10;;;;;;;28.40;24.47;;;;;;;;;;5074971;28;20477;-79
2023/01/05 06:59:37;;;;;;;22.40;20.50;;;;;;;;;;5075828;28;20463;-80
2023/01/05 07:02:04;;;;;;;25.00;20.30;;;;;;;;;;5074891;28;20495;-79
2023/01/05 07:04:33;;;;;;;25.53;20.70;;;;;;;;;;5074811;28;20426;-79
2023/01/05 07:07:00;;;;;;;21.90;20.10;;;;;;;;;;5075280;28;20474;-79
2023/01/05 07:09:27;;;;;;;22.70;20.63;;;;;;;;;;5075858;28;20762;-80
2023/01/05 07:11:54;;;;;;;20.30;18.87;;;;;;;;;;5075465;28;20456;-80
2023/01/05 07:14:21;;;;;;;22.27;20.20;;;;;;;;;;5074753;28;20450;-79
2023/01/05 07:16:48;;;;;;;23.47;20.93;;;;;;;;;;5074483;28;20509;-80
2023/01/05 07:19:15;;;;;;;22.93;20.67;;;;;;;;;;5075317;28;20455;-80
2023/01/05 07:21:43;;;;;;;24.13;19.43;;;;;;;;;;5074963;28;20457;-80
2023/01/05 07:24:10;;;;;;;21.80;19.83;;;;;;;;;;5074820;28;20490;-79
2023/01/05 07:26:37;;;;;;;21.70;19.90;;;;;;;;;;5074333;28;20478;-79
2023/01/05 07:29:04;;;;;;;21.73;19.63;;;;;;;;;;5077940;28;20442;-79
2023/01/05 07:31:31;;;;;;;21.27;20.07;;;;;;;;;;5078802;28;20479;-80
2023/01/05 07:33:58;;;;;;;24.07;21.80;;;;;;;;;;5078358;28;20475;-79
2023/01/05 07:36:25;;;;;;;23.37;21.43;;;;;;;;;;5078888;28;20468;-79
2023/01/05 07:38:54;;;;;;;24.43;22.33;;;;;;;;;;5078641;28;21346;-79
2023/01/05 07:41:21;;;;;;;22.90;20.93;;;;;;;;;;5078488;28;20483;-80
2023/01/05 07:43:49;;;;;;;24.00;20.00;;;;;;;;;;5077349;28;20964;-80
2023/01/05 07:46:16;;;;;;;21.27;19.10;;;;;;;;;;5078715;28;20479;-79
2023/01/05 07:48:43;;;;;;;22.47;20.97;;;;;;;;;;5076521;28;20453;-76
2023/01/05 07:51:11;;;;;;;22.37;20.93;;;;;;;;;;5075438;28;20935;-77
2023/01/05 07:53:38;;;;;;;26.30;23.50;;;;;;;;;;5075142;28;20445;-77
2023/01/05 07:56:07;;;;;;;28.23;22.70;;;;;;;;;;5074885;28;20479;-76
2023/01/05 07:58:34;;;;;;;24.73;22.30;;;;;;;;;;5075755;28;20458;-76
2023/01/05 08:01:03;;;;;;;22.13;20.33;;;;;;;;;;5075756;28;20438;-76
2023/01/05 08:03:30;;;;;;;21.97;20.07;;;;;;;;;;5075003;28;20460;-76
2023/01/05 08:05:57;;;;;;;26.90;23.60;;;;;;;;;;5075051;28;21247;-77
2023/01/05 08:08:24;;;;;;;24.70;22.60;;;;;;;;;;5075532;28;20416;-76
2023/01/05 08:10:50;;;;;;;23.60;21.40;;;;;;;;;;5074892;28;20452;-76
2023/01/05 08:16:03;;;;;;;27.03;21.60;;;;;;;;;;5074975;28;20427;-76
2023/01/05 08:18:30;;;;;;;22.60;20.70;;;;;;;;;;5075302;28;20492;-76
2023/01/05 08:20:59;;;;;;;27.57;23.03;;;;;;;;;;5074922;28;20461;-77
2023/01/05 08:23:26;;;;;;;22.40;20.73;;;;;;;;;;5074645;28;20449;-76
2023/01/05 08:25:53;;;;;;;23.23;21.30;;;;;;;;;;5074496;28;20876;-77
2023/01/05 08:28:22;;;;;;;26.03;23.77;;;;;;;;;;5075015;28;20401;-76
2023/01/05 08:30:49;;;;;;;28.67;22.40;;;;;;;;;;5074835;28;20940;-76
2023/01/05 08:33:16;;;;;;;33.50;22.17;;;;;;;;;;5073974;28;20974;-77
2023/01/05 08:35:43;;;;;;;24.70;21.23;;;;;;;;;;5074526;28;20449;-76
2023/01/05 08:38:11;;;;;;;26.23;22.10;;;;;;;;;;5074791;28;20503;-76
2023/01/05 08:40:38;;;;;;;23.63;21.33;;;;;;;;;;5073636;28;20506;-77
2023/01/05 08:43:05;;;;;;;21.17;19.33;;;;;;;;;;5074190;28;20448;-77
2023/01/05 08:45:34;;;;;;;26.60;20.90;;;;;;;;;;5074507;28;20450;-76
2023/01/05 08:48:02;;;;;;;22.93;20.83;;;;;;;;;;5074788;28;20449;-77
2023/01/05 08:50:29;;;;;;;24.43;22.30;;;;;;;;;;5074773;28;20449;-76
2023/01/05 08:52:56;;;;;;;23.23;21.07;;;;;;;;;;5074447;28;20420;-77
2023/01/05 08:55:23;;;;;;;28.17;19.93;;;;;;;;;;5073599;28;20539;-77
2023/01/05 08:57:50;;;;;;;24.97;20.53;;;;;;;;;;5074829;28;20499;-76
2023/01/05 09:00:20;;;;;;;23.53;20.27;;;;;;;;;;5074322;28;20850;-76
2023/01/05 09:02:48;;;;;;;22.00;20.00;;;;;;;;;;5074487;28;20444;-76
2023/01/05 09:05:16;;;;;;;20.30;18.67;;;;;;;;;;5073801;28;20420;-76
2023/01/05 09:07:43;;;;;;;20.30;18.60;;;;;;;;;;5073288;28;21109;-76
2023/01/05 09:10:10;;;;;;;22.13;20.00;;;;;;;;;;5074048;28;21018;-76
2023/01/05 09:12:38;;;;;;;19.37;17.77;;;;;;;;;;5074249;28;20791;-76
2023/01/05 09:15:05;;;;;;;19.77;17.73;;;;;;;;;;5073721;28;20455;-76
2023/01/05 09:17:34;;;;;;;20.40;18.70;;;;;;;;;;5072841;28;20503;-76
2023/01/05 09:20:03;;;;;;;22.00;19.93;;;;;;;;;;5073738;28;20511;-76
2023/01/05 09:22:31;;;;;;;20.47;18.53;;;;;;;;;;5073645;28;20457;-76
2023/01/05 09:24:58;;;;;;;19.90;18.10;;;;;;;;;;5073159;28;20998;-76
2023/01/05 09:27:25;;;;;;;21.23;19.23;;;;;;;;;;5073855;28;20451;-76
2023/01/05 09:29:52;;;;;;;19.43;18.10;;;;;;;;;;5073973;28;20463;-76
2023/01/05 09:32:18;;;;;;;25.53;18.27;;;;;;;;;;5073058;28;20462;-76
2023/01/05 09:34:45;;;;;;;22.90;18.30;;;;;;;;;;5072921;28;20909;-76
2023/01/05 09:37:14;;;;;;;19.60;17.90;;;;;;;;;;5073336;28;20989;-76
2023/01/05 09:39:41;;;;;;;21.67;19.80;;;;;;;;;;5073605;28;20796;-76
2023/01/05 09:42:12;;;;;;;21.80;19.90;;;;;;;;;;5073694;28;20832;-76
2023/01/05 09:44:41;;;;;;;20.47;18.50;;;;;;;;;;5073126;28;20408;-76
2023/01/05 09:47:13;;;;;;;23.33;20.07;;;;;;;;;;5073234;28;21001;-76
2023/01/05 09:49:41;;;;;;;33.50;20.60;;;;;;;;;;5073559;28;20457;-76
2023/01/05 09:52:10;;;;;;;22.73;20.80;;;;;;;;;;5072633;28;20453;-76
2023/01/05 09:54:39;;;;;;;22.33;20.20;;;;;;;;;;5072894;28;20460;-77
2023/01/05 09:57:09;;;;;;;34.20;21.80;;;;;;;;;;5073297;28;20805;-75
2023/01/05 09:59:38;;;;;;;22.37;20.83;;;;;;;;;;5072596;28;20478;-76
2023/01/05 10:02:07;;;;;;;26.33;20.53;;;;;;;;;;5074165;28;20507;-81
2023/01/05 10:04:34;;;;;;;22.97;20.53;;;;;;;;;;5074699;28;20420;-76
2023/01/05 10:07:03;;;;;;;21.40;19.90;;;;;;;;;;5074092;28;20489;-75
2023/01/05 10:09:32;;;;;;;23.07;20.83;;;;;;;;;;5074174;28;20856;-81
2023/01/05 10:14:53;;;;;;;42.63;30.90;;;;;;;;;;5074797;28;20414;-80
2023/01/05 10:17:21;;;;;;;23.90;21.50;;;;;;;;;;5077104;28;20465;-81
2023/01/05 10:19:49;;;;;;;23.10;21.30;;;;;;;;;;5077184;28;20578;-82
2023/01/05 10:22:24;;;;;;;24.07;21.87;;;;;;;;;;5078387;28;20466;-84
2023/01/05 10:24:54;;;;;;;22.63;20.73;;;;;;;;;;5087756;28;20521;-84
2023/01/05 10:27:26;;;;;;;24.13;21.87;;;;;;;;;;5099907;28;20427;-83
2023/01/05 10:29:54;;;;;;;19.57;17.93;;;;;;;;;;5102350;28;20444;-82
2023/01/05 10:32:24;;;;;;;20.23;18.83;;;;;;;;;;5099881;28;20434;-86
2023/01/05 10:35:02;;;;;;;27.50;20.50;;;;;;;;;;5101017;28;20431;-87
2023/01/05 10:37:40;;;;;;;23.17;20.87;;;;;;;;;;5101676;28;20523;-86
2023/01/05 10:40:11;;;;;;;22.53;20.97;;;;;;;;;;5101677;28;20461;-86
2023/01/05 10:42:45;;;;;;;21.67;20.03;;;;;;;;;;5100487;28;20456;-82
2023/01/05 10:45:14;;;;;;;28.43;26.43;;;;;;;;;;5097710;28;20398;-86
2023/01/05 10:47:41;;;;;;;26.07;23.87;;;;;;;;;;5099499;28;20468;-81
2023/01/05 10:50:21;;;;;;;26.10;24.20;;;;;;;;;;5098537;28;20415;-81
2023/01/05 10:52:48;;;;;;;30.97;27.80;;;;;;;;;;5098752;28;20757;-82
2023/01/05 10:55:18;;;;;;;30.70;28.00;;;;;;;;;;5097674;28;20422;-82
2023/01/05 10:57:46;;;;;;;32.17;29.17;;;;;;;;;;5097868;28;20530;-82
2023/01/05 11:00:15;;;;;;;35.80;32.30;;;;;;;;;;5098328;28;20459;-82
2023/01/05 11:02:43;;;;;;;44.20;40.67;;;;;;;;;;5099091;28;20461;-83
2023/01/05 11:05:25;;;;;;;66.10;60.73;;;;;;;;;;5102679;28;20497;-81
2023/01/05 11:07:54;;;;;;;59.77;55.37;;;;;;;;;;5103291;28;20430;-83
2023/01/05 11:10:22;;;;;;;59.57;55.17;;;;;;;;;;5104040;28;20447;-82
2023/01/05 11:12:54;;;;;;;58.17;54.03;;;;;;;;;;5102671;28;20490;-80
2023/01/05 11:15:21;;;;;;;62.13;56.63;;;;;;;;;;5103214;28;20412;-84
2023/01/05 11:17:48;;;;;;;61.87;56.57;;;;;;;;;;5103087;28;20450;-83
2023/01/05 11:20:17;;;;;;;60.97;56.37;;;;;;;;;;5103666;28;20471;-83
2023/01/05 11:22:44;;;;;;;61.60;56.50;;;;;;;;;;5104825;28;20452;-84
2023/01/05 11:25:15;;;;;;;58.60;53.70;;;;;;;;;;5106314;28;20444;-84
2023/01/05 11:27:42;;;;;;;59.43;54.83;;;;;;;;;;5107077;28;20533;-83
2023/01/05 11:30:23;;;;;;;58.00;53.40;;;;;;;;;;5104224;28;20445;-83
2023/01/05 11:32:50;;;;;;;58.60;53.70;;;;;;;;;;5104407;28;20422;-83
2023/01/05 11:35:21;;;;;;;55.30;51.50;;;;;;;;;;5103743;28;20829;-83
2023/01/05 11:37:48;;;;;;;54.27;49.77;;;;;;;;;;5102850;28;20480;-84
2023/01/05 11:40:16;;;;;;;52.00;48.27;;;;;;;;;;5102694;28;20458;-83
2023/01/05 11:42:43;;;;;;;55.20;50.63;;;;;;;;;;5103302;28;20907;-82
2023/01/05 11:45:19;;;;;;;51.37;48.13;;;;;;;;;;5102702;28;20480;-83
2023/01/05 11:47:49;;;;;;;52.10;48.17;;;;;;;;;;5103789;28;20438;-84
2023/01/05 11:50:17;;;;;;;52.00;48.70;;;;;;;;;;5104868;28;20433;-83
2023/01/05 11:52:45;;;;;;;53.57;49.63;;;;;;;;;;5103921;28;20500;-83
2023/01/05 11:55:32;;;;;;;49.33;45.93;;;;;;;;;;5102839;28;20427;-83
2023/01/05 11:58:14;;;;;;;51.97;48.23;;;;;;;;;;5101718;28;20928;-82
2023/01/05 12:00:51;;;;;;;51.37;48.47;;;;;;;;;;5103285;28;20483;-83
2023/01/05 12:03:33;;;;;;;52.60;48.73;;;;;;;;;;5101109;28;20436;-81
2023/01/05 12:06:05;;;;;;;53.67;49.70;;;;;;;;;;5099357;28;20476;-81
2023/01/05 12:08:37;;;;;;;53.73;49.00;;;;;;;;;;5099800;28;20429;-81
2023/01/05 12:11:11;;;;;;;51.00;47.17;;;;;;;;;;5099409;28;20962;-82
2023/01/05 12:13:49;;;;;;;51.33;47.50;;;;;;;;;;5100032;28;20407;-83
2023/01/05 12:16:22;;;;;;;52.77;48.43;;;;;;;;;;5099849;28;20446;-85
2023/01/05 12:19:07;;;;;;;52.87;49.30;;;;;;;;;;5099191;28;20942;-82
2023/01/05 12:21:38;;;;;;;55.47;50.57;;;;;;;;;;5059625;28;20802;-82
2023/01/05 12:24:13;;;;;;;57.53;52.30;;;;;;;;;;5099675;28;20514;-83
2023/01/05 12:26:46;;;;;;;56.27;51.67;;;;;;;;;;5100837;28;20446;-83
2023/01/05 12:29:24;;;;;;;54.73;50.23;;;;;;;;;;5100656;28;20437;-82
2023/01/05 12:32:00;;;;;;;54.77;49.97;;;;;;;;;;5099960;28;20429;-83
2023/01/05 12:34:35;;;;;;;59.07;54.07;;;;;;;;;;5099739;28;20437;-83
2023/01/05 12:37:13;;;;;;;57.70;52.57;;;;;;;;;;5100138;28;20468;-83
2023/01/05 12:39:48;;;;;;;58.13;53.00;;;;;;;;;;5100259;28;20437;-83
2023/01/05 12:42:23;;;;;;;55.83;51.80;;;;;;;;;;5099945;28;20904;-83
2023/01/05 12:45:03;;;;;;;56.87;52.40;;;;;;;;;;5100402;28;20399;-83
2023/01/05 12:47:43;;;;;;;56.77;52.40;;;;;;;;;;5103455;28;20463;-83
2023/01/05 12:50:20;;;;;;;66.27;60.00;;;;;;;;;;5104524;28;20981;-83
2023/01/05 12:52:50;;;;;;;63.03;57.60;;;;;;;;;;5103775;28;20432;-83
2023/01/05 12:55:18;;;;;;;54.00;50.90;;;;;;;;;;5102855;28;20453;-84
2023/01/05 12:57:52;;;;;;;55.37;51.17;;;;;;;;;;5103388;28;20449;-83
2023/01/05 13:00:20;;;;;;;57.40;52.50;;;;;;;;;;5103272;28;20978;-84
2023/01/05 13:02:52;;;;;;;58.90;54.23;;;;;;;;;;5102981;28;20428;-83
2023/01/05 13:05:20;;;;;;;59.90;55.47;;;;;;;;;;5102435;28;20457;-83
2023/01/05 13:07:52;;;;;;;54.77;50.47;;;;;;;;;;5103561;28;20464;-84
2023/01/05 13:10:21;;;;;;;54.50;50.57;;;;;;;;;;5103198;28;20494;-83
2023/01/05 13:12:51;;;;;;;57.50;51.80;;;;;;;;;;5102579;28;20485;-84
2023/01/05 13:15:20;;;;;;;56.23;51.70;;;;;;;;;;5102583;28;20907;-84
2023/01/05 13:17:49;;;;;;;54.73;50.87;;;;;;;;;;5101698;28;20534;-84
2023/01/05 13:20:22;;;;;;;55.03;51.23;;;;;;;;;;5102458;28;20519;-83
2023/01/05 13:22:52;;;;;;;55.73;51.13;;;;;;;;;;5101826;28;21009;-83
2023/01/05 13:25:20;;;;;;;59.73;54.27;;;;;;;;;;5101224;28;20415;-84
2023/01/05 13:27:47;;;;;;;59.83;54.30;;;;;;;;;;5102372;28;20448;-83
2023/01/05 13:30:19;;;;;;;58.77;53.97;;;;;;;;;;5102209;28;20780;-83
2023/01/05 13:32:57;;;;;;;56.80;52.60;;;;;;;;;;5102068;28;20482;-83
2023/01/05 13:35:33;;;;;;;56.50;52.07;;;;;;;;;;5101680;28;20467;-86
2023/01/05 13:38:19;;;;;;;62.77;57.53;;;;;;;;;;5101916;28;20400;-85
2023/01/05 13:40:59;;;;;;;55.67;51.97;;;;;;;;;;5101921;28;20480;-84
2023/01/05 13:43:35;;;;;;;55.10;50.80;;;;;;;;;;5102243;28;20683;-84
2023/01/05 13:46:26;;;;;;;52.70;48.97;;;;;;;;;;5100987;28;20454;-87
2023/01/05 13:49:02;;;;;;;53.80;49.93;;;;;;;;;;5082251;28;21068;-86
2023/01/05 13:51:35;;;;;;;55.87;50.80;;;;;;;;;;5101528;28;20474;-85
2023/01/05 13:54:04;;;;;;;55.90;51.50;;;;;;;;;;5101488;28;20425;-84
2023/01/05 13:56:33;;;;;;;53.73;49.37;;;;;;;;;;5100875;28;20427;-84
2023/01/05 13:59:02;;;;;;;48.17;44.13;;;;;;;;;;5101497;28;20465;-84
2023/01/05 14:01:39;;;;;;;43.90;41.07;;;;;;;;;;5101007;28;20887;-85
2023/01/05 14:04:16;;;;;;;47.73;41.63;;;;;;;;;;5100233;28;20466;-85
2023/01/05 14:06:44;;;;;;;45.87;41.77;;;;;;;;;;5100875;28;20472;-84
2023/01/05 14:09:15;;;;;;;48.73;43.47;;;;;;;;;;5101252;28;20441;-85
2023/01/05 14:12:13;;;;;;;52.23;47.70;;;;;;;;;;5101709;28;20400;-84
2023/01/05 14:14:55;;;;;;;50.37;46.50;;;;;;;;;;5100565;28;20459;-84
2023/01/05 14:17:37;;;;;;;51.70;47.50;;;;;;;;;;5102708;28;20857;-84
2023/01/05 14:20:08;;;;;;;50.30;46.77;;;;;;;;;;5101394;28;20411;-85
2023/01/05 14:22:38;;;;;;;55.37;50.37;;;;;;;;;;5101228;28;20460;-84
2023/01/05 14:25:24;;;;;;;55.53;50.23;;;;;;;;;;5101211;28;20498;-84
2023/01/05 14:28:06;;;;;;;52.17;48.80;;;;;;;;;;5101966;28;20468;-84
2023/01/05 14:30:34;;;;;;;49.00;45.20;;;;;;;;;;5100789;28;20445;-85
2023/01/05 14:33:05;;;;;;;45.00;41.50;;;;;;;;;;5100131;28;20406;-85
2023/01/05 14:35:34;;;;;;;49.40;45.00;;;;;;;;;;5100997;28;20439;-85
2023/01/05 14:38:02;;;;;;;52.20;47.80;;;;;;;;;;5101069;28;20411;-84
2023/01/05 14:40:37;;;;;;;50.57;46.10;;;;;;;;;;5101514;28;20484;-85
2023/01/05 14:43:06;;;;;;;47.60;42.93;;;;;;;;;;5103324;28;20447;-85
2023/01/05 14:45:36;;;;;;;46.30;42.20;;;;;;;;;;5103731;28;20437;-83
2023/01/05 14:48:06;;;;;;;47.07;43.53;;;;;;;;;;5104092;28;20430;-85
2023/01/05 14:50:34;;;;;;;48.47;43.83;;;;;;;;;;5103794;28;20444;-84
2023/01/05 14:53:03;;;;;;;45.77;41.53;;;;;;;;;;5103109;28;20433;-85
2023/01/05 14:55:32;;;;;;;46.77;43.00;;;;;;;;;;5104506;28;20479;-84
2023/01/05 14:58:00;;;;;;;48.90;44.00;;;;;;;;;;5102810;28;20468;-84
2023/01/05 15:00:41;;;;;;;47.07;43.10;;;;;;;;;;5103424;28;20836;-84
2023/01/05 15:03:13;;;;;;;39.13;35.10;;;;;;;;;;5104234;28;20455;-85
2023/01/05 15:05:43;;;;;;;41.33;33.47;;;;;;;;;;5104117;28;20435;-85
2023/01/05 15:08:15;;;;;;;37.80;34.00;;;;;;;;;;5103681;28;20444;-84